sensor_id;sensor_type;location;lat;lon;timestamp;P1;durP1;ratioP1;P2;durP2;ratioP2
76393;SDS011;65216;51.090;-115.352;2023-04-08T00:02:06;3.10;;;0.50;;
76393;SDS011;65216;51.090;-115.352;2023-04-08T00:04:32;0.80;;;0.50;;
76393;SDS011;65216;51.090;-115.352;2023-04-08T00:07:02;2.10;;;0.50;;
76393;SDS011;65216;51.090;-115.352;2023-04-08T00:09:29;1.10;;;0.40;;
76393;SDS011;65216;51.090;-115.352;2023-04-08T00:11:59;0.90;;;0.30;;
76393;SDS011;65216;51.090;-115.352;2023-04-08T00:14:27;1.90;;;0.50;;
76393;SDS011;65216;51.090;-115.352;2023-04-08T00:16:54;1.20;;;0.30;;
76393;SDS011;65216;51.090;-115.352;2023-04-08T00:19:20;0.70;;;0.40;;
76393;SDS011;65216;51.090;-115.352;2023-04-08T00:21:47;1.50;;;0.50;;
76393;SDS011;65216;51.090;-115.352;2023-04-08T00:24:14;1.00;;;0.40;;
76393;SDS011;65216;51.090;-115.352;2023-04-08T00:26:42;0.90;;;0.40;;
76393;SDS011;65216;51.090;-115.352;2023-04-08T00:29:09;1.20;;;0.30;;
76393;SDS011;65216;51.090;-115.352;2023-04-08T00:31:37;0.70;;;0.30;;
76393;SDS011;65216;51.090;-115.352;2023-04-08T00:34:04;1.70;;;0.40;;
76393;SDS011;65216;51.090;-115.352;2023-04-08T00:36:30;0.20;;;0.20;;
76393;SDS011;65216;51.090;-115.352;2023-04-08T00:38:58;0.70;;;0.40;;
76393;SDS011;65216;51.090;-115.352;2023-04-08T00:41:28;0.60;;;0.30;;
76393;SDS011;65216;51.090;-115.352;2023-04-08T00:43:58;1.40;;;0.60;;
76393;SDS011;65216;51.090;-115.352;2023-04-08T00:46:25;1.00;;;0.30;;
76393;SDS011;65216;51.090;-115.352;2023-04-08T00:48:53;0.90;;;0.40;;
76393;SDS011;65216;51.090;-115.352;2023-04-08T00:51:21;0.70;;;0.30;;
76393;SDS011;65216;51.090;-115.352;2023-04-08T00:53:48;1.50;;;0.50;;
76393;SDS011;65216;51.090;-115.352;2023-04-08T00:56:15;1.30;;;0.50;;
76393;SDS011;65216;51.090;-115.352;2023-04-08T00:58:42;0.80;;;0.40;;
76393;SDS011;65216;51.090;-115.352;2023-04-08T01:01:36;1.10;;;0.40;;
76393;SDS011;65216;51.090;-115.352;2023-04-08T01:07:19;1.10;;;0.30;;
76393;SDS011;65216;51.090;-115.352;2023-04-08T01:09:58;1.50;;;0.40;;
76393;SDS011;65216;51.090;-115.352;2023-04-08T01:12:32;0.50;;;0.40;;
76393;SDS011;65216;51.090;-115.352;2023-04-08T01:15:07;0.60;;;0.30;;
76393;SDS011;65216;51.090;-115.352;2023-04-08T01:17:37;0.50;;;0.20;;
76393;SDS011;65216;51.090;-115.352;2023-04-08T01:20:08;0.90;;;0.40;;
76393;SDS011;65216;51.090;-115.352;2023-04-08T01:25:56;2.00;;;0.40;;
76393;SDS011;65216;51.090;-115.352;2023-04-08T01:28:28;0.80;;;0.30;;
76393;SDS011;65216;51.090;-115.352;2023-04-08T01:30:58;0.80;;;0.50;;
76393;SDS011;65216;51.090;-115.352;2023-04-08T01:33:27;0.90;;;0.30;;
76393;SDS011;65216;51.090;-115.352;2023-04-08T01:35:56;1.70;;;0.50;;
76393;SDS011;65216;51.090;-115.352;2023-04-08T01:38:25;1.30;;;0.40;;
76393;SDS011;65216;51.090;-115.352;2023-04-08T01:40:54;1.20;;;0.30;;
76393;SDS011;65216;51.090;-115.352;2023-04-08T01:43:26;0.60;;;0.30;;
76393;SDS011;65216;51.090;-115.352;2023-04-08T01:45:54;0.70;;;0.40;;
76393;SDS011;65216;51.090;-115.352;2023-04-08T01:48:23;0.70;;;0.40;;
76393;SDS011;65216;51.090;-115.352;2023-04-08T01:50:51;0.90;;;0.40;;
76393;SDS011;65216;51.090;-115.352;2023-04-08T01:53:23;1.40;;;0.40;;
76393;SDS011;65216;51.090;-115.352;2023-04-08T01:55:57;1.80;;;0.40;;
76393;SDS011;65216;51.090;-115.352;2023-04-08T01:58:35;2.70;;;0.80;;
76393;SDS011;65216;51.090;-115.352;2023-04-08T02:01:11;1.30;;;0.50;;
76393;SDS011;65216;51.090;-115.352;2023-04-08T02:03:44;1.50;;;0.50;;
76393;SDS011;65216;51.090;-115.352;2023-04-08T02:06:12;2.20;;;0.40;;
76393;SDS011;65216;51.090;-115.352;2023-04-08T02:08:42;0.70;;;0.40;;
76393;SDS011;65216;51.090;-115.352;2023-04-08T02:11:12;1.80;;;0.60;;
76393;SDS011;65216;51.090;-115.352;2023-04-08T02:13:39;0.60;;;0.40;;
76393;SDS011;65216;51.090;-115.352;2023-04-08T02:16:15;1.40;;;0.50;;
76393;SDS011;65216;51.090;-115.352;2023-04-08T02:18:59;1.10;;;0.40;;
76393;SDS011;65216;51.090;-115.352;2023-04-08T02:21:42;1.40;;;0.40;;
76393;SDS011;65216;51.090;-115.352;2023-04-08T02:24:13;1.00;;;0.60;;
76393;SDS011;65216;51.090;-115.352;2023-04-08T02:26:43;0.80;;;0.40;;
76393;SDS011;65216;51.090;-115.352;2023-04-08T02:29:14;0.70;;;0.30;;
76393;SDS011;65216;51.090;-115.352;2023-04-08T02:31:46;1.40;;;0.60;;
76393;SDS011;65216;51.090;-115.352;2023-04-08T02:34:15;1.80;;;0.70;;
76393;SDS011;65216;51.090;-115.352;2023-04-08T02:36:50;1.50;;;0.40;;
76393;SDS011;65216;51.090;-115.352;2023-04-08T02:39:17;1.40;;;0.40;;
76393;SDS011;65216;51.090;-115.352;2023-04-08T02:41:44;1.10;;;0.30;;
76393;SDS011;65216;51.090;-115.352;2023-04-08T02:44:14;1.10;;;0.30;;
76393;SDS011;65216;51.090;-115.352;2023-04-08T02:46:41;1.40;;;0.50;;
76393;SDS011;65216;51.090;-115.352;2023-04-08T02:49:10;1.30;;;0.50;;
76393;SDS011;65216;51.090;-115.352;2023-04-08T02:51:40;1.60;;;0.40;;
76393;SDS011;65216;51.090;-115.352;2023-04-08T02:54:07;1.50;;;0.50;;
76393;SDS011;65216;51.090;-115.352;2023-04-08T02:56:34;0.80;;;0.30;;
76393;SDS011;65216;51.090;-115.352;2023-04-08T02:59:01;1.00;;;0.40;;
76393;SDS011;65216;51.090;-115.352;2023-04-08T03:01:29;1.30;;;0.40;;
76393;SDS011;65216;51.090;-115.352;2023-04-08T03:03:56;0.50;;;0.40;;
76393;SDS011;65216;51.090;-115.352;2023-04-08T03:06:23;1.20;;;0.40;;
76393;SDS011;65216;51.090;-115.352;2023-04-08T03:08:51;0.90;;;0.40;;
76393;SDS011;65216;51.090;-115.352;2023-04-08T03:11:18;1.10;;;0.40;;
76393;SDS011;65216;51.090;-115.352;2023-04-08T03:13:46;1.00;;;0.40;;
76393;SDS011;65216;51.090;-115.352;2023-04-08T03:16:13;0.90;;;0.40;;
76393;SDS011;65216;51.090;-115.352;2023-04-08T03:18:42;0.80;;;0.50;;
76393;SDS011;65216;51.090;-115.352;2023-04-08T03:21:09;0.70;;;0.50;;
76393;SDS011;65216;51.090;-115.352;2023-04-08T03:23:36;0.70;;;0.40;;
76393;SDS011;65216;51.090;-115.352;2023-04-08T03:26:03;2.00;;;0.60;;
76393;SDS011;65216;51.090;-115.352;2023-04-08T03:28:30;0.80;;;0.40;;
76393;SDS011;65216;51.090;-115.352;2023-04-08T03:30:57;1.30;;;0.50;;
76393;SDS011;65216;51.090;-115.352;2023-04-08T03:33:28;1.10;;;0.50;;
76393;SDS011;65216;51.090;-115.352;2023-04-08T03:35:54;1.20;;;0.40;;
76393;SDS011;65216;51.090;-115.352;2023-04-08T03:38:21;0.90;;;0.30;;
76393;SDS011;65216;51.090;-115.352;2023-04-08T03:40:49;0.90;;;0.50;;
76393;SDS011;65216;51.090;-115.352;2023-04-08T03:43:15;0.90;;;0.40;;
76393;SDS011;65216;51.090;-115.352;2023-04-08T03:45:44;1.00;;;0.40;;
76393;SDS011;65216;51.090;-115.352;2023-04-08T03:48:11;1.50;;;0.40;;
76393;SDS011;65216;51.090;-115.352;2023-04-08T03:50:37;0.40;;;0.30;;
76393;SDS011;65216;51.090;-115.352;2023-04-08T03:53:04;1.40;;;0.50;;
76393;SDS011;65216;51.090;-115.352;2023-04-08T03:55:31;0.50;;;0.30;;
76393;SDS011;65216;51.090;-115.352;2023-04-08T03:57:58;1.00;;;0.50;;
76393;SDS011;65216;51.090;-115.352;2023-04-08T04:00:25;0.80;;;0.40;;
76393;SDS011;65216;51.090;-115.352;2023-04-08T04:02:53;1.50;;;0.60;;
76393;SDS011;65216;51.090;-115.352;2023-04-08T04:05:21;1.60;;;0.40;;
76393;SDS011;65216;51.090;-115.352;2023-04-08T04:07:48;1.40;;;0.40;;
76393;SDS011;65216;51.090;-115.352;2023-04-08T04:10:15;0.60;;;0.30;;
76393;SDS011;65216;51.090;-115.352;2023-04-08T04:12:42;0.60;;;0.30;;
76393;SDS011;65216;51.090;-115.352;2023-04-08T04:15:12;0.90;;;0.50;;
76393;SDS011;65216;51.090;-115.352;2023-04-08T04:17:39;1.20;;;0.40;;
76393;SDS011;65216;51.090;-115.352;2023-04-08T04:20:07;1.50;;;0.50;;
76393;SDS011;65216;51.090;-115.352;2023-04-08T04:22:35;1.00;;;0.50;;
76393;SDS011;65216;51.090;-115.352;2023-04-08T04:25:01;0.70;;;0.30;;
76393;SDS011;65216;51.090;-115.352;2023-04-08T04:27:28;0.70;;;0.40;;
76393;SDS011;65216;51.090;-115.352;2023-04-08T04:29:55;7.60;;;1.30;;
76393;SDS011;65216;51.090;-115.352;2023-04-08T04:32:22;3.70;;;1.00;;
76393;SDS011;65216;51.090;-115.352;2023-04-08T04:34:52;2.10;;;0.70;;
76393;SDS011;65216;51.090;-115.352;2023-04-08T04:37:19;3.90;;;0.60;;
76393;SDS011;65216;51.090;-115.352;2023-04-08T04:39:47;2.40;;;0.50;;
76393;SDS011;65216;51.090;-115.352;2023-04-08T04:42:14;3.10;;;0.60;;
76393;SDS011;65216;51.090;-115.352;2023-04-08T04:44:41;1.80;;;0.60;;
76393;SDS011;65216;51.090;-115.352;2023-04-08T04:47:09;1.30;;;0.50;;
76393;SDS011;65216;51.090;-115.352;2023-04-08T04:49:41;1.10;;;0.40;;
76393;SDS011;65216;51.090;-115.352;2023-04-08T04:52:07;1.30;;;0.50;;
76393;SDS011;65216;51.090;-115.352;2023-04-08T04:54:35;2.30;;;0.60;;
76393;SDS011;65216;51.090;-115.352;2023-04-08T04:57:04;3.20;;;0.70;;
76393;SDS011;65216;51.090;-115.352;2023-04-08T04:59:34;3.10;;;0.80;;
76393;SDS011;65216;51.090;-115.352;2023-04-08T05:02:01;1.70;;;0.40;;
76393;SDS011;65216;51.090;-115.352;2023-04-08T05:04:28;1.90;;;0.50;;
76393;SDS011;65216;51.090;-115.352;2023-04-08T05:06:58;3.90;;;0.70;;
76393;SDS011;65216;51.090;-115.352;2023-04-08T05:09:25;1.80;;;0.60;;
76393;SDS011;65216;51.090;-115.352;2023-04-08T05:11:52;4.40;;;0.70;;
76393;SDS011;65216;51.090;-115.352;2023-04-08T05:14:19;1.20;;;0.50;;
76393;SDS011;65216;51.090;-115.352;2023-04-08T05:16:46;3.10;;;0.70;;
76393;SDS011;65216;51.090;-115.352;2023-04-08T05:19:14;1.90;;;0.70;;
76393;SDS011;65216;51.090;-115.352;2023-04-08T05:21:41;2.60;;;0.70;;
76393;SDS011;65216;51.090;-115.352;2023-04-08T05:24:07;3.60;;;0.70;;
76393;SDS011;65216;51.090;-115.352;2023-04-08T05:26:36;3.80;;;0.90;;
76393;SDS011;65216;51.090;-115.352;2023-04-08T05:29:03;1.20;;;0.70;;
76393;SDS011;65216;51.090;-115.352;2023-04-08T05:31:30;3.60;;;0.80;;
76393;SDS011;65216;51.090;-115.352;2023-04-08T05:33:57;1.50;;;0.70;;
76393;SDS011;65216;51.090;-115.352;2023-04-08T05:36:26;4.80;;;0.80;;
76393;SDS011;65216;51.090;-115.352;2023-04-08T05:38:53;1.60;;;0.60;;
76393;SDS011;65216;51.090;-115.352;2023-04-08T05:41:20;2.10;;;0.60;;
76393;SDS011;65216;51.090;-115.352;2023-04-08T05:43:47;2.50;;;0.60;;
76393;SDS011;65216;51.090;-115.352;2023-04-08T05:46:15;1.80;;;0.50;;
76393;SDS011;65216;51.090;-115.352;2023-04-08T05:48:42;2.10;;;0.60;;
76393;SDS011;65216;51.090;-115.352;2023-04-08T05:51:17;1.70;;;0.60;;
76393;SDS011;65216;51.090;-115.352;2023-04-08T05:53:47;1.20;;;0.50;;
76393;SDS011;65216;51.090;-115.352;2023-04-08T05:56:14;2.70;;;0.60;;
76393;SDS011;65216;51.090;-115.352;2023-04-08T05:58:41;3.00;;;0.60;;
76393;SDS011;65216;51.090;-115.352;2023-04-08T06:01:08;1.50;;;0.70;;
76393;SDS011;65216;51.090;-115.352;2023-04-08T06:03:35;1.40;;;0.60;;
76393;SDS011;65216;51.090;-115.352;2023-04-08T06:06:01;1.60;;;0.40;;
76393;SDS011;65216;51.090;-115.352;2023-04-08T06:08:32;1.30;;;0.50;;
76393;SDS011;65216;51.090;-115.352;2023-04-08T06:11:02;2.90;;;0.60;;
76393;SDS011;65216;51.090;-115.352;2023-04-08T06:13:30;1.70;;;0.60;;
76393;SDS011;65216;51.090;-115.352;2023-04-08T06:15:58;1.80;;;0.60;;
76393;SDS011;65216;51.090;-115.352;2023-04-08T06:18:36;1.50;;;0.50;;
76393;SDS011;65216;51.090;-115.352;2023-04-08T06:21:03;1.10;;;0.50;;
76393;SDS011;65216;51.090;-115.352;2023-04-08T06:23:30;1.60;;;0.50;;
76393;SDS011;65216;51.090;-115.352;2023-04-08T06:25:57;1.60;;;0.60;;
76393;SDS011;65216;51.090;-115.352;2023-04-08T06:28:24;2.00;;;0.60;;
76393;SDS011;65216;51.090;-115.352;2023-04-08T06:30:51;2.50;;;0.70;;
76393;SDS011;65216;51.090;-115.352;2023-04-08T06:33:18;1.70;;;0.50;;
76393;SDS011;65216;51.090;-115.352;2023-04-08T06:35:44;2.40;;;0.60;;
76393;SDS011;65216;51.090;-115.352;2023-04-08T06:38:12;2.10;;;0.70;;
76393;SDS011;65216;51.090;-115.352;2023-04-08T06:40:39;2.70;;;0.70;;
76393;SDS011;65216;51.090;-115.352;2023-04-08T06:43:06;2.40;;;0.70;;
76393;SDS011;65216;51.090;-115.352;2023-04-08T06:45:34;0.80;;;0.50;;
76393;SDS011;65216;51.090;-115.352;2023-04-08T06:48:01;1.80;;;0.50;;
76393;SDS011;65216;51.090;-115.352;2023-04-08T06:50:28;2.30;;;0.50;;
76393;SDS011;65216;51.090;-115.352;2023-04-08T06:52:55;1.90;;;0.60;;
76393;SDS011;65216;51.090;-115.352;2023-04-08T06:55:24;1.70;;;0.50;;
76393;SDS011;65216;51.090;-115.352;2023-04-08T06:57:52;2.00;;;0.80;;
76393;SDS011;65216;51.090;-115.352;2023-04-08T07:00:19;1.40;;;0.50;;
76393;SDS011;65216;51.090;-115.352;2023-04-08T07:02:48;1.30;;;0.50;;
76393;SDS011;65216;51.090;-115.352;2023-04-08T07:05:16;1.70;;;0.60;;
76393;SDS011;65216;51.090;-115.352;2023-04-08T07:07:43;0.90;;;0.50;;
76393;SDS011;65216;51.090;-115.352;2023-04-08T07:10:10;1.50;;;0.60;;
76393;SDS011;65216;51.090;-115.352;2023-04-08T07:12:37;0.90;;;0.60;;
76393;SDS011;65216;51.090;-115.352;2023-04-08T07:15:05;0.70;;;0.40;;
76393;SDS011;65216;51.090;-115.352;2023-04-08T07:17:32;0.90;;;0.60;;
76393;SDS011;65216;51.090;-115.352;2023-04-08T07:19:59;0.90;;;0.40;;
76393;SDS011;65216;51.090;-115.352;2023-04-08T07:22:26;2.20;;;0.60;;
76393;SDS011;65216;51.090;-115.352;2023-04-08T07:24:53;1.30;;;0.40;;
76393;SDS011;65216;51.090;-115.352;2023-04-08T07:27:22;1.70;;;0.50;;
76393;SDS011;65216;51.090;-115.352;2023-04-08T07:29:53;1.70;;;0.40;;
76393;SDS011;65216;51.090;-115.352;2023-04-08T07:32:20;0.90;;;0.30;;
76393;SDS011;65216;51.090;-115.352;2023-04-08T07:34:48;1.70;;;0.40;;
76393;SDS011;65216;51.090;-115.352;2023-04-08T07:37:15;1.40;;;0.50;;
76393;SDS011;65216;51.090;-115.352;2023-04-08T07:39:42;1.10;;;0.40;;
76393;SDS011;65216;51.090;-115.352;2023-04-08T07:42:09;1.30;;;0.40;;
76393;SDS011;65216;51.090;-115.352;2023-04-08T07:44:37;1.10;;;0.40;;
76393;SDS011;65216;51.090;-115.352;2023-04-08T07:47:04;0.50;;;0.40;;
76393;SDS011;65216;51.090;-115.352;2023-04-08T07:49:30;0.70;;;0.40;;
76393;SDS011;65216;51.090;-115.352;2023-04-08T07:51:58;1.00;;;0.30;;
76393;SDS011;65216;51.090;-115.352;2023-04-08T07:54:24;1.60;;;0.50;;
76393;SDS011;65216;51.090;-115.352;2023-04-08T07:56:51;1.30;;;0.40;;
76393;SDS011;65216;51.090;-115.352;2023-04-08T07:59:18;0.80;;;0.40;;
76393;SDS011;65216;51.090;-115.352;2023-04-08T08:01:45;0.80;;;0.50;;
76393;SDS011;65216;51.090;-115.352;2023-04-08T08:04:12;0.50;;;0.30;;
76393;SDS011;65216;51.090;-115.352;2023-04-08T08:06:42;0.30;;;0.20;;
76393;SDS011;65216;51.090;-115.352;2023-04-08T08:09:09;0.70;;;0.30;;
76393;SDS011;65216;51.090;-115.352;2023-04-08T08:11:36;0.60;;;0.30;;
76393;SDS011;65216;51.090;-115.352;2023-04-08T08:14:02;0.20;;;0.10;;
76393;SDS011;65216;51.090;-115.352;2023-04-08T08:16:30;0.40;;;0.40;;
76393;SDS011;65216;51.090;-115.352;2023-04-08T08:18:58;1.50;;;0.50;;
76393;SDS011;65216;51.090;-115.352;2023-04-08T08:21:25;0.70;;;0.30;;
76393;SDS011;65216;51.090;-115.352;2023-04-08T08:23:52;0.50;;;0.30;;
76393;SDS011;65216;51.090;-115.352;2023-04-08T08:26:19;0.60;;;0.40;;
76393;SDS011;65216;51.090;-115.352;2023-04-08T08:28:47;0.60;;;0.40;;
76393;SDS011;65216;51.090;-115.352;2023-04-08T08:31:14;1.00;;;0.40;;
76393;SDS011;65216;51.090;-115.352;2023-04-08T08:33:43;1.50;;;0.50;;
76393;SDS011;65216;51.090;-115.352;2023-04-08T08:36:11;0.70;;;0.30;;
76393;SDS011;65216;51.090;-115.352;2023-04-08T08:38:39;0.90;;;0.40;;
76393;SDS011;65216;51.090;-115.352;2023-04-08T08:41:05;1.40;;;0.50;;
76393;SDS011;65216;51.090;-115.352;2023-04-08T08:43:32;1.40;;;0.40;;
76393;SDS011;65216;51.090;-115.352;2023-04-08T08:46:00;0.70;;;0.20;;
76393;SDS011;65216;51.090;-115.352;2023-04-08T08:48:28;1.00;;;0.50;;
76393;SDS011;65216;51.090;-115.352;2023-04-08T08:50:57;0.60;;;0.30;;
76393;SDS011;65216;51.090;-115.352;2023-04-08T08:53:30;1.40;;;0.30;;
76393;SDS011;65216;51.090;-115.352;2023-04-08T08:55:57;0.30;;;0.20;;
76393;SDS011;65216;51.090;-115.352;2023-04-08T08:58:28;0.70;;;0.20;;
76393;SDS011;65216;51.090;-115.352;2023-04-08T09:00:57;1.20;;;0.40;;
76393;SDS011;65216;51.090;-115.352;2023-04-08T09:03:27;1.00;;;0.50;;
76393;SDS011;65216;51.090;-115.352;2023-04-08T09:06:01;1.00;;;0.30;;
76393;SDS011;65216;51.090;-115.352;2023-04-08T09:11:13;0.60;;;0.30;;
76393;SDS011;65216;51.090;-115.352;2023-04-08T09:13:46;0.80;;;0.30;;
76393;SDS011;65216;51.090;-115.352;2023-04-08T09:16:18;0.40;;;0.20;;
76393;SDS011;65216;51.090;-115.352;2023-04-08T09:18:46;0.70;;;0.30;;
76393;SDS011;65216;51.090;-115.352;2023-04-08T09:21:15;0.30;;;0.20;;
76393;SDS011;65216;51.090;-115.352;2023-04-08T09:23:45;0.70;;;0.30;;
76393;SDS011;65216;51.090;-115.352;2023-04-08T09:26:22;0.80;;;0.40;;
76393;SDS011;65216;51.090;-115.352;2023-04-08T09:29:02;0.50;;;0.40;;
76393;SDS011;65216;51.090;-115.352;2023-04-08T09:31:35;0.70;;;0.30;;
76393;SDS011;65216;51.090;-115.352;2023-04-08T09:34:14;0.10;;;0.10;;
76393;SDS011;65216;51.090;-115.352;2023-04-08T09:36:46;0.70;;;0.20;;
76393;SDS011;65216;51.090;-115.352;2023-04-08T09:39:14;0.70;;;0.30;;
76393;SDS011;65216;51.090;-115.352;2023-04-08T09:41:43;0.50;;;0.30;;
76393;SDS011;65216;51.090;-115.352;2023-04-08T09:44:11;0.40;;;0.20;;
76393;SDS011;65216;51.090;-115.352;2023-04-08T09:55:16;0.40;;;0.20;;
76393;SDS011;65216;51.090;-115.352;2023-04-08T09:58:01;0.30;;;0.30;;
76393;SDS011;65216;51.090;-115.352;2023-04-08T10:00:49;0.70;;;0.30;;
76393;SDS011;65216;51.090;-115.352;2023-04-08T10:03:39;1.10;;;0.40;;
76393;SDS011;65216;51.090;-115.352;2023-04-08T10:06:26;0.90;;;0.30;;
76393;SDS011;65216;51.090;-115.352;2023-04-08T10:09:00;0.30;;;0.30;;
76393;SDS011;65216;51.090;-115.352;2023-04-08T10:11:32;0.30;;;0.20;;
76393;SDS011;65216;51.090;-115.352;2023-04-08T10:14:04;0.30;;;0.20;;
76393;SDS011;65216;51.090;-115.352;2023-04-08T10:16:32;1.00;;;0.30;;
76393;SDS011;65216;51.090;-115.352;2023-04-08T10:18:59;0.20;;;0.20;;
76393;SDS011;65216;51.090;-115.352;2023-04-08T10:24:13;0.20;;;0.10;;
76393;SDS011;65216;51.090;-115.352;2023-04-08T10:26:44;0.60;;;0.20;;
76393;SDS011;65216;51.090;-115.352;2023-04-08T10:31:48;1.00;;;0.20;;
76393;SDS011;65216;51.090;-115.352;2023-04-08T10:34:19;0.10;;;0.10;;
76393;SDS011;65216;51.090;-115.352;2023-04-08T10:36:49;0.10;;;0.10;;
76393;SDS011;65216;51.090;-115.352;2023-04-08T10:39:17;0.50;;;0.20;;
76393;SDS011;65216;51.090;-115.352;2023-04-08T10:41:49;0.60;;;0.20;;
76393;SDS011;65216;51.090;-115.352;2023-04-08T10:44:21;0.50;;;0.10;;
76393;SDS011;65216;51.090;-115.352;2023-04-08T10:46:51;0.30;;;0.30;;
76393;SDS011;65216;51.090;-115.352;2023-04-08T10:49:19;0.30;;;0.10;;
76393;SDS011;65216;51.090;-115.352;2023-04-08T10:51:47;0.30;;;0.00;;
76393;SDS011;65216;51.090;-115.352;2023-04-08T10:54:17;0.30;;;0.10;;
76393;SDS011;65216;51.090;-115.352;2023-04-08T10:56:48;0.50;;;0.10;;
76393;SDS011;65216;51.090;-115.352;2023-04-08T10:59:27;0.60;;;0.30;;
76393;SDS011;65216;51.090;-115.352;2023-04-08T11:01:58;0.30;;;0.10;;
76393;SDS011;65216;51.090;-115.352;2023-04-08T11:04:26;0.70;;;0.30;;
76393;SDS011;65216;51.090;-115.352;2023-04-08T11:06:53;0.40;;;0.20;;
76393;SDS011;65216;51.090;-115.352;2023-04-08T11:09:20;0.20;;;0.20;;
76393;SDS011;65216;51.090;-115.352;2023-04-08T11:11:48;0.20;;;0.10;;
76393;SDS011;65216;51.090;-115.352;2023-04-08T11:14:15;0.30;;;0.10;;
76393;SDS011;65216;51.090;-115.352;2023-04-08T11:16:46;0.80;;;0.20;;
76393;SDS011;65216;51.090;-115.352;2023-04-08T11:19:13;0.10;;;0.00;;
76393;SDS011;65216;51.090;-115.352;2023-04-08T11:21:40;1.10;;;0.20;;
76393;SDS011;65216;51.090;-115.352;2023-04-08T11:24:11;0.30;;;0.10;;
76393;SDS011;65216;51.090;-115.352;2023-04-08T11:26:39;0.10;;;0.10;;
76393;SDS011;65216;51.090;-115.352;2023-04-08T11:29:13;0.60;;;0.00;;
76393;SDS011;65216;51.090;-115.352;2023-04-08T11:31:44;0.20;;;0.10;;
76393;SDS011;65216;51.090;-115.352;2023-04-08T11:34:21;0.00;;;0.00;;
76393;SDS011;65216;51.090;-115.352;2023-04-08T11:36:52;0.50;;;0.10;;
76393;SDS011;65216;51.090;-115.352;2023-04-08T11:39:23;0.60;;;0.20;;
76393;SDS011;65216;51.090;-115.352;2023-04-08T11:41:51;0.00;;;0.00;;
76393;SDS011;65216;51.090;-115.352;2023-04-08T11:44:31;0.10;;;0.10;;
76393;SDS011;65216;51.090;-115.352;2023-04-08T11:46:58;0.60;;;0.10;;
76393;SDS011;65216;51.090;-115.352;2023-04-08T11:49:27;0.20;;;0.20;;
76393;SDS011;65216;51.090;-115.352;2023-04-08T11:52:11;0.50;;;0.20;;
76393;SDS011;65216;51.090;-115.352;2023-04-08T11:54:41;0.20;;;0.10;;
76393;SDS011;65216;51.090;-115.352;2023-04-08T11:57:09;0.00;;;0.00;;
76393;SDS011;65216;51.090;-115.352;2023-04-08T11:59:36;0.10;;;0.00;;
76393;SDS011;65216;51.090;-115.352;2023-04-08T12:02:03;0.80;;;0.10;;
76393;SDS011;65216;51.090;-115.352;2023-04-08T12:04:30;0.50;;;0.10;;
76393;SDS011;65216;51.090;-115.352;2023-04-08T12:06:57;0.60;;;0.20;;
76393;SDS011;65216;51.090;-115.352;2023-04-08T12:09:26;0.00;;;0.00;;
76393;SDS011;65216;51.090;-115.352;2023-04-08T12:11:56;0.20;;;0.10;;
76393;SDS011;65216;51.090;-115.352;2023-04-08T12:14:23;0.00;;;0.00;;
76393;SDS011;65216;51.090;-115.352;2023-04-08T12:16:50;0.10;;;0.10;;
76393;SDS011;65216;51.090;-115.352;2023-04-08T12:19:18;0.00;;;0.00;;
76393;SDS011;65216;51.090;-115.352;2023-04-08T12:21:47;0.70;;;0.20;;
76393;SDS011;65216;51.090;-115.352;2023-04-08T12:24:14;0.70;;;0.20;;
76393;SDS011;65216;51.090;-115.352;2023-04-08T12:26:41;0.10;;;0.10;;
76393;SDS011;65216;51.090;-115.352;2023-04-08T12:29:08;0.10;;;0.10;;
76393;SDS011;65216;51.090;-115.352;2023-04-08T12:31:41;0.30;;;0.10;;
76393;SDS011;65216;51.090;-115.352;2023-04-08T12:34:08;0.30;;;0.20;;
76393;SDS011;65216;51.090;-115.352;2023-04-08T12:36:35;0.20;;;0.10;;
76393;SDS011;65216;51.090;-115.352;2023-04-08T12:39:04;0.10;;;0.10;;
76393;SDS011;65216;51.090;-115.352;2023-04-08T12:41:30;1.00;;;0.20;;
76393;SDS011;65216;51.090;-115.352;2023-04-08T12:43:58;0.40;;;0.10;;
76393;SDS011;65216;51.090;-115.352;2023-04-08T12:46:26;0.60;;;0.20;;
76393;SDS011;65216;51.090;-115.352;2023-04-08T12:48:53;0.10;;;0.10;;
76393;SDS011;65216;51.090;-115.352;2023-04-08T12:51:20;0.20;;;0.10;;
76393;SDS011;65216;51.090;-115.352;2023-04-08T12:53:47;0.20;;;0.20;;
76393;SDS011;65216;51.090;-115.352;2023-04-08T12:56:14;0.20;;;0.10;;
76393;SDS011;65216;51.090;-115.352;2023-04-08T12:58:41;0.40;;;0.10;;
76393;SDS011;65216;51.090;-115.352;2023-04-08T13:01:13;0.20;;;0.10;;
76393;SDS011;65216;51.090;-115.352;2023-04-08T13:03:40;0.50;;;0.20;;
76393;SDS011;65216;51.090;-115.352;2023-04-08T13:06:07;0.30;;;0.10;;
76393;SDS011;65216;51.090;-115.352;2023-04-08T13:08:34;0.20;;;0.10;;
76393;SDS011;65216;51.090;-115.352;2023-04-08T13:11:02;0.20;;;0.10;;
76393;SDS011;65216;51.090;-115.352;2023-04-08T13:13:29;0.70;;;0.20;;
76393;SDS011;65216;51.090;-115.352;2023-04-08T13:15:56;0.30;;;0.00;;
76393;SDS011;65216;51.090;-115.352;2023-04-08T13:18:26;0.10;;;0.10;;
76393;SDS011;65216;51.090;-115.352;2023-04-08T13:20:53;0.60;;;0.10;;
76393;SDS011;65216;51.090;-115.352;2023-04-08T13:23:20;0.10;;;0.00;;
76393;SDS011;65216;51.090;-115.352;2023-04-08T13:25:47;0.50;;;0.10;;
76393;SDS011;65216;51.090;-115.352;2023-04-08T13:28:14;0.50;;;0.10;;
76393;SDS011;65216;51.090;-115.352;2023-04-08T13:30:43;0.30;;;0.20;;
76393;SDS011;65216;51.090;-115.352;2023-04-08T13:33:10;0.50;;;0.10;;
76393;SDS011;65216;51.090;-115.352;2023-04-08T13:35:37;0.90;;;0.20;;
76393;SDS011;65216;51.090;-115.352;2023-04-08T13:38:07;0.90;;;0.20;;
76393;SDS011;65216;51.090;-115.352;2023-04-08T13:40:34;0.40;;;0.10;;
76393;SDS011;65216;51.090;-115.352;2023-04-08T13:43:01;0.40;;;0.10;;
76393;SDS011;65216;51.090;-115.352;2023-04-08T13:45:28;0.40;;;0.10;;
76393;SDS011;65216;51.090;-115.352;2023-04-08T13:47:55;0.20;;;0.20;;
76393;SDS011;65216;51.090;-115.352;2023-04-08T13:50:23;0.40;;;0.20;;
76393;SDS011;65216;51.090;-115.352;2023-04-08T13:52:49;1.70;;;0.30;;
76393;SDS011;65216;51.090;-115.352;2023-04-08T13:55:17;1.20;;;0.30;;
76393;SDS011;65216;51.090;-115.352;2023-04-08T13:57:47;0.50;;;0.10;;
76393;SDS011;65216;51.090;-115.352;2023-04-08T14:00:13;2.20;;;0.20;;
76393;SDS011;65216;51.090;-115.352;2023-04-08T14:02:41;2.60;;;0.30;;
76393;SDS011;65216;51.090;-115.352;2023-04-08T14:05:08;0.40;;;0.20;;
76393;SDS011;65216;51.090;-115.352;2023-04-08T14:07:35;0.20;;;0.20;;
76393;SDS011;65216;51.090;-115.352;2023-04-08T14:10:02;0.10;;;0.10;;
76393;SDS011;65216;51.090;-115.352;2023-04-08T14:12:29;0.40;;;0.20;;
76393;SDS011;65216;51.090;-115.352;2023-04-08T14:14:56;1.50;;;0.40;;
76393;SDS011;65216;51.090;-115.352;2023-04-08T14:17:23;0.10;;;0.00;;
76393;SDS011;65216;51.090;-115.352;2023-04-08T14:19:50;1.20;;;0.30;;
76393;SDS011;65216;51.090;-115.352;2023-04-08T14:22:17;0.70;;;0.20;;
76393;SDS011;65216;51.090;-115.352;2023-04-08T14:24:44;0.70;;;0.20;;
76393;SDS011;65216;51.090;-115.352;2023-04-08T14:27:11;1.20;;;0.30;;
76393;SDS011;65216;51.090;-115.352;2023-04-08T14:29:38;1.00;;;0.30;;
76393;SDS011;65216;51.090;-115.352;2023-04-08T14:32:08;2.20;;;0.30;;
76393;SDS011;65216;51.090;-115.352;2023-04-08T14:34:37;0.40;;;0.20;;
76393;SDS011;65216;51.090;-115.352;2023-04-08T14:37:03;0.30;;;0.20;;
76393;SDS011;65216;51.090;-115.352;2023-04-08T14:39:31;1.10;;;0.20;;
76393;SDS011;65216;51.090;-115.352;2023-04-08T14:41:57;0.80;;;0.20;;